sensor_id;sensor_type;location;lat;lon;timestamp;temperature;humidity
20047;DHT22;45339;49.838;18.904;2022-10-16T00:08:39;15.20;99.90
20047;DHT22;45339;49.838;18.904;2022-10-16T00:39:01;15.00;99.90
20047;DHT22;45339;49.838;18.904;2022-10-16T01:09:15;15.10;99.90
20047;DHT22;45339;49.838;18.904;2022-10-16T01:39:32;15.00;99.90
20047;DHT22;45339;49.838;18.904;2022-10-16T02:09:41;15.10;99.90
20047;DHT22;45339;49.838;18.904;2022-10-16T02:39:56;15.10;99.90
20047;DHT22;45339;49.838;18.904;2022-10-16T03:10:07;14.90;99.90
20047;DHT22;45339;49.838;18.904;2022-10-16T03:40:17;14.20;1.00
20047;DHT22;45339;49.838;18.904;2022-10-16T04:10:31;14.20;1.00
20047;DHT22;45339;49.838;18.904;2022-10-16T04:40:41;14.50;99.90
20047;DHT22;45339;49.838;18.904;2022-10-16T05:10:50;14.70;99.90
20047;DHT22;45339;49.838;18.904;2022-10-16T05:41:05;15.10;99.90
20047;DHT22;45339;49.838;18.904;2022-10-16T06:11:19;15.20;99.90
20047;DHT22;45339;49.838;18.904;2022-10-16T06:41:28;16.50;99.90
20047;DHT22;45339;49.838;18.904;2022-10-16T07:12:01;18.80;99.90
20047;DHT22;45339;49.838;18.904;2022-10-16T07:42:10;20.20;43.30
20047;DHT22;45339;49.838;18.904;2022-10-16T08:12:19;19.10;43.40
20047;DHT22;45339;49.838;18.904;2022-10-16T09:13:21;20.80;1.00
20047;DHT22;45339;49.838;18.904;2022-10-16T09:43:38;25.90;1.00
20047;DHT22;45339;49.838;18.904;2022-10-16T10:13:49;24.30;1.00
20047;DHT22;45339;49.838;18.904;2022-10-16T10:44:07;21.00;1.00
20047;DHT22;45339;49.838;18.904;2022-10-16T11:14:24;20.30;1.00
20047;DHT22;45339;49.838;18.904;2022-10-16T11:44:46;20.30;1.00
20047;DHT22;45339;49.838;18.904;2022-10-16T12:15:20;21.10;1.00
20047;DHT22;45339;49.838;18.904;2022-10-16T12:45:59;20.80;1.00
20047;DHT22;45339;49.838;18.904;2022-10-16T13:16:15;21.80;1.00
20047;DHT22;45339;49.838;18.904;2022-10-16T13:46:36;20.20;1.00
20047;DHT22;45339;49.838;18.904;2022-10-16T14:16:52;20.30;1.00
20047;DHT22;45339;49.838;18.904;2022-10-16T14:47:07;19.80;1.00
20047;DHT22;45339;49.838;18.904;2022-10-16T15:17:29;19.60;18.80
20047;DHT22;45339;49.838;18.904;2022-10-16T15:47:38;18.80;77.80
20047;DHT22;45339;49.838;18.904;2022-10-16T16:17:54;18.10;99.90
20047;DHT22;45339;49.838;18.904;2022-10-16T16:48:07;17.70;99.90
20047;DHT22;45339;49.838;18.904;2022-10-16T17:18:24;17.30;99.90
20047;DHT22;45339;49.838;18.904;2022-10-16T17:48:36;17.10;99.90
20047;DHT22;45339;49.838;18.904;2022-10-16T18:18:49;16.50;99.90
20047;DHT22;45339;49.838;18.904;2022-10-16T18:49:03;16.30;99.90
20047;DHT22;45339;49.838;18.904;2022-10-16T19:19:19;16.40;99.90
20047;DHT22;45339;49.838;18.904;2022-10-16T19:49:28;16.00;99.90
20047;DHT22;45339;49.838;18.904;2022-10-16T20:19:37;15.50;1.00
20047;DHT22;45339;49.838;18.904;2022-10-16T20:49:51;14.80;1.00
20047;DHT22;45339;49.838;18.904;2022-10-16T21:20:03;15.20;1.00
20047;DHT22;45339;49.838;18.904;2022-10-16T21:50:12;13.80;1.00
20047;DHT22;45339;49.838;18.904;2022-10-16T22:20:21;13.20;99.90
20047;DHT22;45339;49.838;18.904;2022-10-16T22:50:34;13.70;1.00
20047;DHT22;45339;49.838;18.904;2022-10-16T23:20:43;14.50;1.00
20047;DHT22;45339;49.838;18.904;2022-10-16T23:50:51;14.40;1.00
